TKY91L EPKK-GMMX
Flight info
| Callsign | TKY91L |
|---|---|
| Flight time | N/A |
| Altitude | 36000 |
| Route | BABKO DCT VADEX DCT KOPAT DCT BABNI DCT DETSA/N0487F350 DCT TAGIP/N0484F370 DCT VOG DCT GEKBA DCT VAMTU DCT KOLON DCT GANGU DCT PADKO DCT DIVKO DCT NILDU DCT NENDA DCT BCN DCT RODRA DCT PEXOT DCT EBROX DCT LOTOS DCT TORDU DCT DIKUT DCT SOPET DCT VLC DCT BEGOX DCT NARGO DCT RESTU DCT DOSEK DCT AMR DCT GONZA DCT BERUM UG850 OBOGA |
| Aircraft | B77W/H-SDE1E2E3FGHIJ2J3J4J5M1RWXY/LB1D1 |
Departure
| Time | 2026-05-07 16:07 |
|---|---|
| Airport | Kraków John Paul II International Airport (EPKK) |
Arrival
| Time | N/A |
|---|---|
| Airport | Marrakesh Menara Airport (GMMX) |
| Time | Latitude | Longitude | Altitude | Speed | Heading |
|---|---|---|---|---|---|
| 2026-05-07 15:48 | 50.07329 | 19.80106 | 805 ft | 0 kts | 167° |
| 2026-05-07 15:57 | 50.07350 | 19.80099 | 805 ft | 4 kts | 168° |
| 2026-05-07 15:58 | 50.07375 | 19.80091 | 805 ft | 2 kts | 168° |
| 2026-05-07 15:58 | 50.07396 | 19.80078 | 805 ft | 4 kts | 122° |
| 2026-05-07 15:58 | 50.07401 | 19.80041 | 805 ft | 4 kts | 80° |
| 2026-05-07 15:58 | 50.07397 | 19.80011 | 805 ft | 1 kts | 78° |
| 2026-05-07 15:59 | 50.07396 | 19.80006 | 805 ft | 0 kts | 78° |
| 2026-05-07 16:02 | 50.07401 | 19.80037 | 805 ft | 4 kts | 78° |
| 2026-05-07 16:02 | 50.07407 | 19.80082 | 805 ft | 4 kts | 78° |
| 2026-05-07 16:02 | 50.07413 | 19.80126 | 805 ft | 4 kts | 78° |
| 2026-05-07 16:02 | 50.07419 | 19.80170 | 805 ft | 4 kts | 78° |
| 2026-05-07 16:03 | 50.07425 | 19.80214 | 805 ft | 4 kts | 78° |
| 2026-05-07 16:03 | 50.07433 | 19.80274 | 805 ft | 6 kts | 78° |
| 2026-05-07 16:03 | 50.07444 | 19.80334 | 805 ft | 6 kts | 66° |
| 2026-05-07 16:03 | 50.07474 | 19.80377 | 805 ft | 6 kts | 26° |
| 2026-05-07 16:04 | 50.07515 | 19.80399 | 805 ft | 6 kts | 18° |
| 2026-05-07 16:04 | 50.07556 | 19.80419 | 805 ft | 6 kts | 15° |
| 2026-05-07 16:04 | 50.07601 | 19.80418 | 805 ft | 6 kts | 353° |
| 2026-05-07 16:04 | 50.07656 | 19.80400 | 805 ft | 9 kts | 347° |
| 2026-05-07 16:05 | 50.07720 | 19.80377 | 805 ft | 9 kts | 348° |
| 2026-05-07 16:05 | 50.07781 | 19.80358 | 805 ft | 9 kts | 348° |
| 2026-05-07 16:05 | 50.07842 | 19.80338 | 805 ft | 9 kts | 348° |
| 2026-05-07 16:05 | 50.07905 | 19.80318 | 805 ft | 9 kts | 348° |
| 2026-05-07 16:06 | 50.07972 | 19.80296 | 804 ft | 10 kts | 347° |
| 2026-05-07 16:06 | 50.08013 | 19.80235 | 805 ft | 8 kts | 285° |
| 2026-05-07 16:06 | 50.07999 | 19.80107 | 806 ft | 32 kts | 257° |
| 2026-05-07 16:06 | 50.07881 | 19.79292 | 805 ft | 121 kts | 257° |
| 2026-05-07 16:07 | 50.07646 | 19.77612 | 807 ft | 193 kts | 257° |
| 2026-05-07 16:07 | 50.07371 | 19.75460 | 1325 ft | 204 kts | 256° |
| 2026-05-07 16:07 | 50.07062 | 19.73308 | 2097 ft | 202 kts | 257° |
| 2026-05-07 16:07 | 50.06755 | 19.71242 | 2824 ft | 200 kts | 256° |
| 2026-05-07 16:08 | 50.06425 | 19.69026 | 3084 ft | 217 kts | 256° |
| 2026-05-07 16:08 | 50.05830 | 19.66828 | 3431 ft | 229 kts | 232° |
| 2026-05-07 16:08 | 50.04564 | 19.65294 | 4177 ft | 237 kts | 207° |
| 2026-05-07 16:08 | 50.02917 | 19.64698 | 4783 ft | 254 kts | 180° |
| 2026-05-07 16:09 | 50.02729 | 19.64711 | 4836 ft | 256 kts | 177° |
| 2026-05-07 16:09 | 50.02610 | 19.64727 | 4882 ft | 257 kts | 175° |
| 2026-05-07 16:09 | 50.00839 | 19.65327 | 5488 ft | 266 kts | 169° |
| 2026-05-07 16:10 | 49.99014 | 19.65992 | 6021 ft | 271 kts | 169° |
| 2026-05-07 16:10 | 49.97161 | 19.66646 | 6810 ft | 274 kts | 169° |
| 2026-05-07 16:10 | 49.95303 | 19.67292 | 7757 ft | 274 kts | 170° |
| 2026-05-07 16:10 | 49.93436 | 19.67929 | 8600 ft | 276 kts | 170° |
| 2026-05-07 16:11 | 49.92437 | 19.68268 | 9086 ft | 277 kts | 170° |
| 2026-05-07 16:11 | 49.91579 | 19.68559 | 9472 ft | 279 kts | 170° |
| 2026-05-07 16:11 | 49.89667 | 19.69204 | 10250 ft | 284 kts | 171° |
| 2026-05-07 16:11 | 49.87669 | 19.69397 | 10555 ft | 298 kts | 193° |
| 2026-05-07 16:12 | 49.85709 | 19.68128 | 10747 ft | 317 kts | 210° |
| 2026-05-07 16:12 | 49.83712 | 19.66358 | 10949 ft | 344 kts | 210° |
| 2026-05-07 16:12 | 49.81605 | 19.64509 | 11503 ft | 358 kts | 210° |
| 2026-05-07 16:12 | 49.79413 | 19.62596 | 12344 ft | 365 kts | 209° |
| 2026-05-07 16:13 | 49.77176 | 19.60649 | 13324 ft | 370 kts | 209° |
| 2026-05-07 16:13 | 49.74917 | 19.58693 | 14261 ft | 373 kts | 208° |
| 2026-05-07 16:13 | 49.72642 | 19.56728 | 15194 ft | 376 kts | 208° |
| 2026-05-07 16:13 | 49.70348 | 19.54753 | 16111 ft | 379 kts | 208° |
| 2026-05-07 16:14 | 49.68026 | 19.52757 | 17052 ft | 382 kts | 208° |
| 2026-05-07 16:14 | 49.65724 | 19.50779 | 17915 ft | 387 kts | 208° |
| 2026-05-07 16:14 | 49.63356 | 19.48749 | 18688 ft | 391 kts | 208° |
| 2026-05-07 16:14 | 49.61005 | 19.46586 | 19433 ft | 395 kts | 215° |
| 2026-05-07 16:15 | 49.59026 | 19.43663 | 20081 ft | 397 kts | 226° |
| 2026-05-07 16:15 | 49.57147 | 19.40465 | 20696 ft | 404 kts | 225° |
| 2026-05-07 16:15 | 49.55239 | 19.37268 | 21472 ft | 406 kts | 225° |
| 2026-05-07 16:15 | 49.53313 | 19.34080 | 22252 ft | 407 kts | 224° |
| 2026-05-07 16:16 | 49.51373 | 19.30897 | 22987 ft | 410 kts | 224° |
| 2026-05-07 16:16 | 49.49404 | 19.27686 | 23665 ft | 414 kts | 224° |
| 2026-05-07 16:16 | 49.47417 | 19.24458 | 24250 ft | 417 kts | 224° |
| 2026-05-07 16:16 | 49.45417 | 19.21216 | 24857 ft | 419 kts | 224° |
| 2026-05-07 16:17 | 49.43409 | 19.17963 | 25436 ft | 421 kts | 224° |
| 2026-05-07 16:17 | 49.41383 | 19.14687 | 26000 ft | 423 kts | 224° |
| 2026-05-07 16:17 | 49.39373 | 19.11441 | 26529 ft | 426 kts | 224° |
| 2026-05-07 16:17 | 49.37321 | 19.08134 | 27049 ft | 429 kts | 225° |
| 2026-05-07 16:18 | 49.35255 | 19.04805 | 27569 ft | 432 kts | 225° |
| 2026-05-07 16:18 | 49.33181 | 19.01467 | 28134 ft | 433 kts | 224° |
| 2026-05-07 16:18 | 49.31097 | 18.98119 | 28642 ft | 435 kts | 224° |
| 2026-05-07 16:18 | 49.28975 | 18.94710 | 29058 ft | 439 kts | 224° |
| 2026-05-07 16:19 | 49.26881 | 18.91355 | 29390 ft | 442 kts | 224° |
| 2026-05-07 16:19 | 49.24745 | 18.87938 | 29798 ft | 444 kts | 224° |
| 2026-05-07 16:19 | 49.22608 | 18.84520 | 30202 ft | 445 kts | 224° |
| 2026-05-07 16:19 | 49.20473 | 18.81112 | 30702 ft | 442 kts | 224° |
| 2026-05-07 16:20 | 49.18359 | 18.77739 | 31296 ft | 436 kts | 224° |
| 2026-05-07 16:20 | 49.16268 | 18.74407 | 31893 ft | 432 kts | 224° |
| 2026-05-07 16:20 | 49.14194 | 18.71106 | 32384 ft | 429 kts | 224° |
| 2026-05-07 16:20 | 49.12201 | 18.67743 | 32837 ft | 428 kts | 229° |
| 2026-05-07 16:21 | 49.10434 | 18.64160 | 33216 ft | 428 kts | 232° |
| 2026-05-07 16:21 | 49.08789 | 18.60310 | 33669 ft | 428 kts | 236° |
| 2026-05-07 16:21 | 49.07383 | 18.56352 | 34003 ft | 429 kts | 238° |
| 2026-05-07 16:22 | 49.04587 | 18.48276 | 33965 ft | 429 kts | 238° |
| 2026-05-07 16:22 | 49.01787 | 18.40276 | 33962 ft | 427 kts | 238° |
| 2026-05-07 16:23 | 48.98972 | 18.32297 | 33966 ft | 428 kts | 238° |
| 2026-05-07 16:23 | 48.96136 | 18.24269 | 33969 ft | 433 kts | 238° |
| 2026-05-07 16:24 | 48.93418 | 18.16018 | 33965 ft | 437 kts | 240° |
| 2026-05-07 16:24 | 48.90761 | 18.07679 | 33964 ft | 439 kts | 240° |
| 2026-05-07 16:25 | 48.88081 | 17.99332 | 33960 ft | 439 kts | 240° |
| 2026-05-07 16:25 | 48.85400 | 17.91071 | 33963 ft | 438 kts | 239° |
| 2026-05-07 16:26 | 48.82692 | 17.82783 | 33959 ft | 437 kts | 239° |
| 2026-05-07 16:26 | 48.79987 | 17.74540 | 33960 ft | 436 kts | 239° |
| 2026-05-07 16:27 | 48.77275 | 17.66302 | 33954 ft | 437 kts | 240° |
| 2026-05-07 16:27 | 48.74571 | 17.58109 | 33960 ft | 438 kts | 239° |
| 2026-05-07 16:28 | 48.71836 | 17.49850 | 33949 ft | 439 kts | 239° |
| 2026-05-07 16:28 | 48.69088 | 17.41578 | 33953 ft | 440 kts | 239° |
| 2026-05-07 16:29 | 48.66327 | 17.33295 | 33954 ft | 440 kts | 239° |
| 2026-05-07 16:29 | 48.63561 | 17.25025 | 33951 ft | 441 kts | 239° |
| 2026-05-07 16:30 | 48.60791 | 17.16765 | 33961 ft | 441 kts | 239° |
| 2026-05-07 16:30 | 48.58026 | 17.08549 | 33960 ft | 441 kts | 239° |
| 2026-05-07 16:31 | 48.55239 | 17.00294 | 33957 ft | 441 kts | 239° |
| 2026-05-07 16:31 | 48.52446 | 16.92048 | 33956 ft | 441 kts | 239° |
| 2026-05-07 16:32 | 48.49650 | 16.83819 | 33970 ft | 440 kts | 239° |
| 2026-05-07 16:32 | 48.47323 | 16.76992 | 33956 ft | 440 kts | 239° |
| 2026-05-07 16:33 | 48.44525 | 16.68803 | 33960 ft | 439 kts | 239° |
| 2026-05-07 16:33 | 48.41262 | 16.59291 | 33968 ft | 439 kts | 239° |
| 2026-05-07 16:34 | 48.38907 | 16.52445 | 33981 ft | 440 kts | 240° |
| 2026-05-07 16:34 | 48.36084 | 16.44267 | 33976 ft | 441 kts | 240° |
| 2026-05-07 16:35 | 48.33273 | 16.36146 | 33972 ft | 441 kts | 240° |
| 2026-05-07 16:35 | 48.30428 | 16.27953 | 33970 ft | 441 kts | 240° |
| 2026-05-07 16:36 | 48.27592 | 16.19809 | 33974 ft | 440 kts | 240° |
| 2026-05-07 16:36 | 48.24747 | 16.11667 | 33964 ft | 440 kts | 240° |
| 2026-05-07 16:37 | 48.21891 | 16.03524 | 33968 ft | 441 kts | 240° |
| 2026-05-07 16:37 | 48.19046 | 15.95432 | 33975 ft | 442 kts | 240° |
| 2026-05-07 16:38 | 48.16173 | 15.87285 | 33972 ft | 441 kts | 240° |
| 2026-05-07 16:38 | 48.13301 | 15.79168 | 33975 ft | 441 kts | 240° |
| 2026-05-07 16:39 | 48.10425 | 15.71063 | 33971 ft | 440 kts | 240° |
| 2026-05-07 16:39 | 48.07550 | 15.62987 | 33980 ft | 439 kts | 240° |
| 2026-05-07 16:40 | 48.04674 | 15.54933 | 33981 ft | 439 kts | 240° |
| 2026-05-07 16:40 | 48.01804 | 15.46926 | 33975 ft | 440 kts | 240° |
| 2026-05-07 16:41 | 47.98898 | 15.38838 | 33988 ft | 445 kts | 241° |
| 2026-05-07 16:41 | 47.95954 | 15.30669 | 33985 ft | 449 kts | 240° |
| 2026-05-07 16:42 | 47.92979 | 15.22438 | 33996 ft | 451 kts | 240° |
| 2026-05-07 16:42 | 47.89991 | 15.14205 | 34005 ft | 450 kts | 240° |
| 2026-05-07 16:43 | 47.87003 | 15.05987 | 34002 ft | 451 kts | 240° |
| 2026-05-07 16:43 | 47.84025 | 14.97826 | 34004 ft | 450 kts | 240° |
| 2026-05-07 16:44 | 47.81031 | 14.89644 | 34019 ft | 450 kts | 240° |
| 2026-05-07 16:44 | 47.78022 | 14.81452 | 34013 ft | 451 kts | 240° |
| 2026-05-07 16:45 | 47.75015 | 14.73289 | 34011 ft | 453 kts | 240° |
| 2026-05-07 16:45 | 47.71976 | 14.65069 | 34009 ft | 454 kts | 240° |
| 2026-05-07 16:46 | 47.68940 | 14.56877 | 34009 ft | 452 kts | 241° |
| 2026-05-07 16:46 | 47.65906 | 14.48714 | 34012 ft | 451 kts | 241° |
| 2026-05-07 16:47 | 47.62867 | 14.40574 | 34006 ft | 451 kts | 240° |
| 2026-05-07 16:47 | 47.59826 | 14.32439 | 34037 ft | 452 kts | 241° |
| 2026-05-07 16:48 | 47.56772 | 14.24293 | 34028 ft | 453 kts | 241° |
| 2026-05-07 16:48 | 47.53699 | 14.16128 | 34014 ft | 453 kts | 241° |
| 2026-05-07 16:49 | 47.50643 | 14.08033 | 34013 ft | 453 kts | 241° |
| 2026-05-07 16:49 | 47.47564 | 13.99903 | 34019 ft | 453 kts | 241° |
| 2026-05-07 16:50 | 47.44482 | 13.91789 | 34018 ft | 453 kts | 241° |
| 2026-05-07 16:50 | 47.41393 | 13.83680 | 34039 ft | 453 kts | 241° |
| 2026-05-07 16:51 | 47.38298 | 13.75580 | 34017 ft | 453 kts | 241° |
| 2026-05-07 16:51 | 47.35202 | 13.67504 | 34019 ft | 451 kts | 241° |
| 2026-05-07 16:52 | 47.32111 | 13.59458 | 33987 ft | 450 kts | 241° |
| 2026-05-07 16:52 | 47.29041 | 13.51495 | 34026 ft | 448 kts | 241° |
| 2026-05-07 16:53 | 47.25952 | 13.43515 | 34020 ft | 449 kts | 241° |
| 2026-05-07 16:53 | 47.22855 | 13.35525 | 33996 ft | 449 kts | 242° |
| 2026-05-07 16:54 | 47.19753 | 13.27548 | 34014 ft | 449 kts | 242° |
| 2026-05-07 16:54 | 47.16661 | 13.19623 | 34010 ft | 449 kts | 242° |
| 2026-05-07 16:55 | 47.13546 | 13.11658 | 34019 ft | 450 kts | 241° |
| 2026-05-07 16:55 | 47.10412 | 13.03674 | 34011 ft | 451 kts | 242° |
| 2026-05-07 16:56 | 47.07291 | 12.95744 | 34009 ft | 451 kts | 241° |
| 2026-05-07 16:56 | 47.02586 | 12.83837 | 33997 ft | 448 kts | 242° |
| 2026-05-07 16:57 | 46.99464 | 12.75968 | 34013 ft | 447 kts | 242° |
| 2026-05-07 16:57 | 46.96341 | 12.68101 | 34005 ft | 446 kts | 242° |
| 2026-05-07 16:58 | 46.93211 | 12.60254 | 34011 ft | 447 kts | 242° |
| 2026-05-07 16:58 | 46.90071 | 12.52403 | 33994 ft | 446 kts | 242° |
| 2026-05-07 16:59 | 46.86936 | 12.44585 | 34022 ft | 445 kts | 242° |
| 2026-05-07 16:59 | 46.83825 | 12.36841 | 34034 ft | 444 kts | 242° |
| 2026-05-07 17:00 | 46.80675 | 12.29076 | 34051 ft | 444 kts | 240° |
| 2026-05-07 17:00 | 46.76998 | 12.21785 | 34053 ft | 447 kts | 234° |
| 2026-05-07 17:01 | 46.73154 | 12.14653 | 33944 ft | 446 kts | 235° |
| 2026-05-07 17:01 | 46.69338 | 12.07542 | 33951 ft | 444 kts | 235° |
| 2026-05-07 17:02 | 46.65549 | 12.00489 | 33998 ft | 441 kts | 235° |
| 2026-05-07 17:02 | 46.61768 | 11.93418 | 33959 ft | 443 kts | 235° |
| 2026-05-07 17:03 | 46.57981 | 11.86374 | 33960 ft | 443 kts | 235° |
| 2026-05-07 17:03 | 46.54183 | 11.79329 | 33985 ft | 442 kts | 235° |
| 2026-05-07 17:04 | 46.50381 | 11.72309 | 33970 ft | 441 kts | 235° |
| 2026-05-07 17:04 | 46.46586 | 11.65313 | 33944 ft | 441 kts | 236° |
| 2026-05-07 17:05 | 46.42815 | 11.58371 | 33960 ft | 441 kts | 235° |
| 2026-05-07 17:05 | 46.38982 | 11.51336 | 33986 ft | 442 kts | 235° |
| 2026-05-07 17:06 | 46.35198 | 11.44409 | 33983 ft | 439 kts | 235° |
| 2026-05-07 17:06 | 46.31411 | 11.37496 | 33998 ft | 438 kts | 235° |
| 2026-05-07 17:07 | 46.27622 | 11.30593 | 33998 ft | 436 kts | 235° |
| 2026-05-07 17:07 | 46.23841 | 11.23721 | 34057 ft | 437 kts | 235° |
| 2026-05-07 17:08 | 46.20077 | 11.16895 | 34044 ft | 438 kts | 235° |
| 2026-05-07 17:08 | 46.16277 | 11.10025 | 34044 ft | 439 kts | 235° |
| 2026-05-07 17:09 | 46.12454 | 11.03126 | 34049 ft | 440 kts | 235° |
| 2026-05-07 17:09 | 46.08626 | 10.96240 | 34044 ft | 439 kts | 234° |
| 2026-05-07 17:10 | 46.04794 | 10.89363 | 34002 ft | 440 kts | 235° |
| 2026-05-07 17:10 | 46.00971 | 10.82516 | 34026 ft | 437 kts | 235° |
| 2026-05-07 17:11 | 45.97165 | 10.75715 | 34014 ft | 436 kts | 235° |
| 2026-05-07 17:11 | 45.93361 | 10.68942 | 34036 ft | 434 kts | 235° |
| 2026-05-07 17:12 | 45.89634 | 10.62184 | 34022 ft | 434 kts | 236° |
| 2026-05-07 17:12 | 45.85884 | 10.55313 | 33977 ft | 432 kts | 235° |